createdAt,value
2023-05-25T00:01:05.206Z,4.75
2023-05-25T00:03:32.801Z,4.60
2023-05-25T00:06:03.520Z,3.90
2023-05-25T00:08:30.686Z,4.13
2023-05-25T00:10:57.720Z,3.97
2023-05-25T00:13:24.978Z,3.97
2023-05-25T00:15:52.041Z,4.18
2023-05-25T00:18:19.096Z,3.90
2023-05-25T00:20:47.662Z,3.92
2023-05-25T00:23:15.025Z,3.92
2023-05-25T00:25:42.560Z,3.53
2023-05-25T00:28:11.210Z,3.80
2023-05-25T00:30:38.687Z,3.97
2023-05-25T00:33:06.967Z,4.03
2023-05-25T00:35:33.994Z,4.03
2023-05-25T00:38:01.077Z,3.75
2023-05-25T00:40:28.162Z,4.13
2023-05-25T00:42:57.714Z,4.00
2023-05-25T00:45:24.743Z,4.15
2023-05-25T00:47:53.166Z,3.30
2023-05-25T00:50:38.170Z,3.55
2023-05-25T00:53:06.569Z,3.42
2023-05-25T00:55:39.640Z,3.67
2023-05-25T00:58:09.837Z,4.00
2023-05-25T01:00:38.869Z,3.25
2023-05-25T01:03:13.832Z,3.38
2023-05-25T01:05:44.809Z,3.55
2023-05-25T01:08:14.071Z,3.45
2023-05-25T01:10:42.523Z,3.30
2023-05-25T01:13:10.748Z,3.20
2023-05-25T01:15:38.738Z,3.80
2023-05-25T01:18:06.164Z,3.72
2023-05-25T01:20:33.198Z,3.40
2023-05-25T01:23:15.822Z,3.50
2023-05-25T01:25:51.658Z,4.60
2023-05-25T01:28:25.181Z,3.55
2023-05-25T01:30:53.419Z,3.63
2023-05-25T01:33:21.694Z,3.55
2023-05-25T01:35:49.738Z,3.38
2023-05-25T01:38:17.826Z,3.53
2023-05-25T01:40:45.052Z,3.72
2023-05-25T01:43:12.839Z,3.72
2023-05-25T01:45:39.981Z,3.25
2023-05-25T01:48:25.058Z,3.13
2023-05-25T01:50:58.085Z,3.38
2023-05-25T01:53:48.825Z,3.45
2023-05-25T01:56:18.016Z,3.50
2023-05-25T01:58:47.963Z,3.50
2023-05-25T02:01:17.140Z,3.28
2023-05-25T02:03:49.116Z,3.35
2023-05-25T02:06:16.782Z,3.22
2023-05-25T02:08:46.605Z,3.40
2023-05-25T02:11:17.344Z,3.40
2023-05-25T02:13:45.943Z,3.10
2023-05-25T02:16:12.938Z,3.42
2023-05-25T02:18:46.089Z,3.88
2023-05-25T02:21:13.385Z,4.00
2023-05-25T02:23:40.476Z,4.00
2023-05-25T02:26:07.569Z,3.60
2023-05-25T02:28:34.718Z,3.83
2023-05-25T02:31:02.012Z,3.92
2023-05-25T02:33:29.067Z,3.83
2023-05-25T02:35:57.703Z,3.88
2023-05-25T02:38:24.681Z,4.18
2023-05-25T02:40:51.862Z,3.53
2023-05-25T02:43:21.006Z,3.75
2023-05-25T02:45:48.500Z,4.05
2023-05-25T02:48:15.608Z,4.10
2023-05-25T02:50:44.025Z,4.00
2023-05-25T02:53:14.164Z,4.43
2023-05-25T02:55:44.952Z,4.40
2023-05-25T02:58:17.874Z,4.13
2023-05-25T03:01:00.328Z,3.80
2023-05-25T03:03:28.657Z,4.00
2023-05-25T03:05:57.209Z,4.47
2023-05-25T03:08:24.396Z,3.88
2023-05-25T03:10:51.492Z,3.70
2023-05-25T03:13:19.769Z,4.35
2023-05-25T03:15:46.952Z,4.03
2023-05-25T03:18:14.129Z,3.72
2023-05-25T03:20:41.617Z,4.80
2023-05-25T03:23:08.764Z,4.32
2023-05-25T03:25:36.830Z,4.07
2023-05-25T03:28:05.093Z,4.72
2023-05-25T03:30:32.397Z,4.28
2023-05-25T03:32:59.497Z,4.43
2023-05-25T03:35:34.643Z,4.05
2023-05-25T03:38:01.668Z,4.20
2023-05-25T03:40:28.755Z,4.43
2023-05-25T03:42:55.960Z,4.38
2023-05-25T03:45:22.907Z,4.47
2023-05-25T03:47:51.211Z,4.55
2023-05-25T03:50:18.741Z,4.30
2023-05-25T03:52:45.985Z,4.38
2023-05-25T03:55:15.281Z,4.50
2023-05-25T03:57:42.530Z,4.75
2023-05-25T04:00:10.571Z,4.13
2023-05-25T04:02:40.469Z,4.70
2023-05-25T04:05:09.170Z,4.35
2023-05-25T04:07:37.168Z,4.85
2023-05-25T04:10:04.995Z,4.63
2023-05-25T04:12:32.525Z,4.75
2023-05-25T04:15:00.224Z,4.50
2023-05-25T04:17:28.457Z,4.45
2023-05-25T04:19:56.220Z,4.20
2023-05-25T04:22:23.891Z,4.20
2023-05-25T04:24:50.906Z,3.65
2023-05-25T04:27:20.630Z,4.18
2023-05-25T04:29:50.214Z,4.25
2023-05-25T04:32:37.741Z,5.40
2023-05-25T04:35:20.991Z,4.43
2023-05-25T04:40:17.467Z,4.35
2023-05-25T04:42:45.073Z,4.38
2023-05-25T04:45:12.266Z,4.60
2023-05-25T04:47:41.312Z,5.38
2023-05-25T04:50:10.966Z,4.72
2023-05-25T04:52:38.499Z,4.60
2023-05-25T04:55:06.169Z,4.50
2023-05-25T04:57:36.898Z,4.80
2023-05-25T05:00:05.954Z,4.97
2023-05-25T05:02:33.955Z,5.18
2023-05-25T05:05:00.953Z,4.85
2023-05-25T05:07:29.067Z,4.72
2023-05-25T05:09:56.144Z,5.60
2023-05-25T05:12:23.591Z,5.00
2023-05-25T05:14:53.408Z,5.20
2023-05-25T05:17:20.961Z,5.53
2023-05-25T05:19:47.974Z,4.97
2023-05-25T05:22:16.130Z,5.22
2023-05-25T05:24:44.610Z,5.22
2023-05-25T05:27:16.126Z,5.70
2023-05-25T05:29:46.627Z,5.30
2023-05-25T05:32:13.705Z,5.65
2023-05-25T05:34:41.040Z,5.65
2023-05-25T05:37:17.895Z,5.32
2023-05-25T05:39:45.883Z,5.88
2023-05-25T05:42:13.147Z,4.78
2023-05-25T05:44:40.272Z,5.65
2023-05-25T05:47:07.529Z,5.53
2023-05-25T05:49:34.707Z,5.45
2023-05-25T05:52:02.558Z,5.68
2023-05-25T05:54:29.541Z,5.68
2023-05-25T05:57:00.248Z,6.25
2023-05-25T05:59:27.450Z,5.50
2023-05-25T06:01:54.923Z,5.80
2023-05-25T06:04:25.410Z,5.50
2023-05-25T06:06:52.434Z,5.70
2023-05-25T06:09:19.393Z,4.97
2023-05-25T06:11:47.322Z,5.32
2023-05-25T06:14:14.503Z,5.78
2023-05-25T06:16:43.828Z,5.30
2023-05-25T06:19:11.586Z,5.57
2023-05-25T06:21:38.609Z,5.90
2023-05-25T06:24:06.241Z,5.93
2023-05-25T06:26:34.510Z,6.03
2023-05-25T06:29:02.167Z,5.30
2023-05-25T06:31:29.266Z,5.50
2023-05-25T06:33:56.508Z,5.38
2023-05-25T06:36:23.511Z,5.40
2023-05-25T06:38:51.442Z,5.50
2023-05-25T06:41:19.838Z,5.40
2023-05-25T06:43:46.821Z,5.07
2023-05-25T06:46:25.986Z,5.63
2023-05-25T06:48:52.930Z,5.40
2023-05-25T06:51:19.956Z,5.45
2023-05-25T06:53:46.980Z,5.22
2023-05-25T06:56:13.974Z,5.95
2023-05-25T06:58:41.297Z,5.65
2023-05-25T07:01:08.413Z,5.10
2023-05-25T07:03:35.693Z,5.70
2023-05-25T07:06:02.693Z,5.50
2023-05-25T07:08:29.714Z,5.25
2023-05-25T07:10:57.062Z,5.30
2023-05-25T07:13:24.120Z,5.65
2023-05-25T07:15:52.901Z,5.88
2023-05-25T07:18:19.914Z,5.57
2023-05-25T07:20:48.358Z,4.90
2023-05-25T07:23:15.378Z,5.30
2023-05-25T07:25:42.541Z,5.45
2023-05-25T07:28:09.594Z,5.80
2023-05-25T07:30:36.863Z,5.47
2023-05-25T07:33:03.983Z,5.15
2023-05-25T07:35:31.000Z,4.75
2023-05-25T07:37:59.527Z,5.68
2023-05-25T07:40:26.656Z,5.30
2023-05-25T07:42:54.207Z,5.05
2023-05-25T07:45:22.053Z,5.03
2023-05-25T07:47:49.192Z,5.75
2023-05-25T07:50:16.474Z,5.00
2023-05-25T07:52:43.470Z,4.93
2023-05-25T07:55:10.611Z,5.20
2023-05-25T07:57:37.753Z,5.35
2023-05-25T08:00:07.834Z,4.88
2023-05-25T08:02:40.135Z,5.50
2023-05-25T08:05:07.643Z,5.65
2023-05-25T08:07:35.018Z,5.68
2023-05-25T08:10:03.461Z,5.32
2023-05-25T08:12:46.691Z,5.63
2023-05-25T08:15:14.501Z,5.65
2023-05-25T08:17:41.902Z,5.55
2023-05-25T08:20:10.696Z,5.90
2023-05-25T08:22:38.037Z,5.60
2023-05-25T08:25:05.460Z,5.32
2023-05-25T08:27:36.726Z,6.10
2023-05-25T08:30:06.310Z,5.38
2023-05-25T08:32:33.442Z,4.75
2023-05-25T08:35:01.732Z,5.68
2023-05-25T08:37:29.374Z,5.35
2023-05-25T08:39:56.600Z,5.30
2023-05-25T08:42:23.986Z,5.55
2023-05-25T08:44:51.139Z,5.60
2023-05-25T08:47:20.565Z,5.68
2023-05-25T08:49:50.115Z,5.88
2023-05-25T08:52:22.899Z,5.80
2023-05-25T08:54:54.054Z,5.82
2023-05-25T08:57:29.530Z,5.88
2023-05-25T09:00:10.632Z,5.45
2023-05-25T09:03:15.971Z,5.60
2023-05-25T09:08:11.258Z,5.53
2023-05-25T09:10:39.302Z,5.55
2023-05-25T09:13:20.563Z,6.47
2023-05-25T09:15:50.260Z,6.05
2023-05-25T09:18:17.367Z,5.85
2023-05-25T09:20:46.930Z,6.57
2023-05-25T09:23:15.296Z,6.07
2023-05-25T09:25:42.597Z,5.70
2023-05-25T09:30:39.968Z,6.03
2023-05-25T09:33:15.071Z,5.50
2023-05-25T09:35:42.133Z,5.47
2023-05-25T09:38:09.274Z,5.47
2023-05-25T09:40:38.664Z,4.97
2023-05-25T09:43:05.701Z,5.80
2023-05-25T09:45:32.850Z,6.03
2023-05-25T09:48:00.070Z,5.47
2023-05-25T09:50:30.904Z,5.80
2023-05-25T09:53:00.331Z,5.65
2023-05-25T09:55:40.028Z,5.53
2023-05-25T09:58:19.739Z,5.30
2023-05-25T10:00:47.121Z,5.40
2023-05-25T10:03:15.985Z,4.95
2023-05-25T10:05:43.087Z,5.00
2023-05-25T10:08:11.418Z,4.93
2023-05-25T10:10:39.967Z,5.22
2023-05-25T10:13:09.185Z,4.95
2023-05-25T10:15:40.224Z,4.75
2023-05-25T10:18:09.429Z,4.82
2023-05-25T10:20:37.199Z,5.03
2023-05-25T10:23:13.112Z,4.78
2023-05-25T10:25:43.304Z,4.30
2023-05-25T10:28:10.485Z,3.92
2023-05-25T10:30:39.292Z,3.92
2023-05-25T10:33:07.110Z,3.65
2023-05-25T10:35:46.668Z,3.45
2023-05-25T10:38:19.918Z,4.00
2023-05-25T10:40:53.067Z,3.97
2023-05-25T10:43:21.357Z,3.40
2023-05-25T10:45:49.303Z,3.50
2023-05-25T10:48:16.553Z,3.22
2023-05-25T10:50:50.560Z,3.80
2023-05-25T10:53:20.886Z,3.08
2023-05-25T10:55:53.895Z,3.67
2023-05-25T10:58:22.427Z,3.30
2023-05-25T11:01:01.785Z,3.42
2023-05-25T11:03:44.708Z,3.78
2023-05-25T11:06:16.583Z,3.50
2023-05-25T11:08:56.755Z,3.58
2023-05-25T11:11:43.729Z,3.30
2023-05-25T11:14:33.340Z,3.10
2023-05-25T11:17:16.850Z,3.40
2023-05-25T11:19:51.796Z,3.13
2023-05-25T11:22:21.168Z,3.28
2023-05-25T11:24:53.054Z,3.10
2023-05-25T11:27:24.395Z,3.17
2023-05-25T11:29:52.210Z,3.25
2023-05-25T11:32:19.936Z,3.33
2023-05-25T11:34:54.405Z,3.30
2023-05-25T11:37:25.212Z,4.05
2023-05-25T11:39:53.517Z,3.13
2023-05-25T11:42:23.593Z,3.53
2023-05-25T11:44:51.425Z,4.00
2023-05-25T11:47:23.180Z,3.85
2023-05-25T11:49:50.881Z,3.60
2023-05-25T11:52:20.025Z,3.85
2023-05-25T11:54:47.700Z,4.50
2023-05-25T11:57:20.147Z,3.67
2023-05-25T11:59:52.243Z,4.00
2023-05-25T12:02:19.980Z,4.32
2023-05-25T12:05:02.091Z,4.07
2023-05-25T12:07:30.732Z,3.78
2023-05-25T12:10:14.020Z,4.43
2023-05-25T12:12:44.451Z,4.40
2023-05-25T12:15:18.954Z,4.30
2023-05-25T12:17:48.423Z,4.32
2023-05-25T12:20:17.743Z,4.40
2023-05-25T12:22:46.539Z,4.22
2023-05-25T12:25:14.531Z,4.10
2023-05-25T12:27:41.806Z,3.90
2023-05-25T12:30:10.497Z,4.43
2023-05-25T12:33:07.824Z,3.95
2023-05-25T12:35:46.762Z,4.13
2023-05-25T12:38:17.863Z,3.60
2023-05-25T12:40:45.651Z,3.88
2023-05-25T12:43:14.332Z,3.88
2023-05-25T12:45:42.461Z,4.30
2023-05-25T12:48:09.754Z,4.30
2023-05-25T12:50:37.381Z,3.50
2023-05-25T12:53:04.947Z,4.15
2023-05-25T12:55:34.330Z,3.75
2023-05-25T12:58:03.513Z,3.80
2023-05-25T13:00:35.421Z,4.07
2023-05-25T13:03:03.380Z,3.65
2023-05-25T13:05:36.742Z,3.95
2023-05-25T13:08:05.418Z,3.72
2023-05-25T13:10:33.265Z,4.30
2023-05-25T13:13:00.775Z,3.85
2023-05-25T13:15:28.722Z,4.30
2023-05-25T13:17:58.768Z,3.90
2023-05-25T13:20:27.682Z,3.97
2023-05-25T13:22:57.984Z,3.97
2023-05-25T13:25:28.145Z,4.28
2023-05-25T13:27:58.030Z,4.20
2023-05-25T13:30:26.392Z,4.20
2023-05-25T13:32:53.490Z,4.07
2023-05-25T13:35:37.374Z,4.70
2023-05-25T13:38:04.656Z,3.92
2023-05-25T13:40:34.633Z,4.30
2023-05-25T13:43:01.646Z,4.00
2023-05-25T13:45:28.643Z,4.05
2023-05-25T13:47:55.911Z,4.20
2023-05-25T13:50:22.943Z,4.55
2023-05-25T13:52:49.922Z,4.00
2023-05-25T13:55:16.985Z,4.47
2023-05-25T13:57:44.003Z,4.82
2023-05-25T14:00:11.478Z,4.43
2023-05-25T14:02:38.691Z,4.60
2023-05-25T14:05:06.409Z,4.35
2023-05-25T14:07:33.408Z,4.50
2023-05-25T14:10:00.639Z,4.93
2023-05-25T14:12:27.861Z,4.57
2023-05-25T14:14:55.014Z,4.88
2023-05-25T14:17:22.121Z,4.80
2023-05-25T14:19:49.207Z,4.90
2023-05-25T14:22:16.278Z,5.13
2023-05-25T14:24:43.375Z,4.70
2023-05-25T14:27:10.789Z,4.88
2023-05-25T14:29:37.864Z,5.10
2023-05-25T14:32:04.978Z,4.72
2023-05-25T14:34:32.081Z,4.85
2023-05-25T14:36:59.101Z,5.13
2023-05-25T14:39:28.942Z,4.97
2023-05-25T14:41:58.912Z,4.68
2023-05-25T14:44:25.888Z,4.80
2023-05-25T14:46:52.884Z,4.85
2023-05-25T14:49:21.389Z,4.60
2023-05-25T14:51:48.399Z,4.32
2023-05-25T14:54:15.354Z,4.55
2023-05-25T14:56:42.523Z,5.10
2023-05-25T14:59:09.575Z,4.60
2023-05-25T15:01:37.092Z,4.38
2023-05-25T15:04:04.566Z,4.32
2023-05-25T15:06:34.356Z,4.53
2023-05-25T15:09:01.403Z,4.63
2023-05-25T15:11:28.409Z,4.20
2023-05-25T15:13:55.423Z,4.68
2023-05-25T15:16:22.432Z,4.50
2023-05-25T15:18:51.002Z,4.93
2023-05-25T15:21:18.283Z,4.75
2023-05-25T15:23:45.390Z,4.50
2023-05-25T15:26:12.858Z,4.88
2023-05-25T15:28:40.074Z,4.45
2023-05-25T15:31:07.174Z,5.00
2023-05-25T15:36:04.210Z,4.45
2023-05-25T15:38:31.388Z,5.43
2023-05-25T15:40:58.331Z,5.13
2023-05-25T15:43:25.482Z,5.07
2023-05-25T15:45:52.543Z,5.13
2023-05-25T15:48:19.581Z,6.32
2023-05-25T15:50:46.995Z,5.45
2023-05-25T15:53:14.415Z,5.32
2023-05-25T15:55:41.498Z,5.40
2023-05-25T15:58:08.802Z,5.57
2023-05-25T16:00:35.749Z,5.28
2023-05-25T16:03:03.000Z,5.10
2023-05-25T16:05:30.161Z,5.65
2023-05-25T16:07:57.167Z,5.25
2023-05-25T16:10:24.153Z,5.63
2023-05-25T16:12:51.255Z,5.18
2023-05-25T16:15:18.362Z,5.43
2023-05-25T16:17:45.317Z,5.30
2023-05-25T16:20:12.614Z,5.25
2023-05-25T16:22:39.529Z,5.22
2023-05-25T16:25:06.944Z,5.53
2023-05-25T16:27:33.920Z,5.55
2023-05-25T16:30:01.096Z,5.32
2023-05-25T16:32:28.968Z,5.38
2023-05-25T16:34:55.968Z,5.68
2023-05-25T16:37:22.956Z,5.38
2023-05-25T16:39:50.026Z,6.00
2023-05-25T16:42:17.019Z,5.50
2023-05-25T16:44:44.008Z,5.53
2023-05-25T16:47:11.490Z,5.30
2023-05-25T16:49:38.521Z,5.13
2023-05-25T16:52:05.902Z,5.32
2023-05-25T16:54:33.129Z,5.38
2023-05-25T16:57:00.225Z,5.20
2023-05-25T16:59:27.218Z,5.85
2023-05-25T17:01:54.295Z,5.60
2023-05-25T17:04:21.393Z,5.22
2023-05-25T17:06:48.396Z,6.95
2023-05-25T17:09:15.513Z,5.22
2023-05-25T17:11:42.490Z,5.38
2023-05-25T17:14:09.481Z,5.35
2023-05-25T17:16:36.600Z,5.57
2023-05-25T17:19:03.619Z,5.65
2023-05-25T17:21:30.949Z,4.82
2023-05-25T17:23:58.008Z,5.35
2023-05-25T17:26:24.993Z,5.40
2023-05-25T17:28:52.087Z,4.82
2023-05-25T17:31:19.146Z,5.15
2023-05-25T17:33:46.085Z,5.30
2023-05-25T17:36:13.040Z,4.97
2023-05-25T17:38:41.164Z,5.05
2023-05-25T17:41:08.106Z,5.88
2023-05-25T17:43:35.048Z,5.40
2023-05-25T17:46:02.314Z,5.75
2023-05-25T17:48:29.389Z,5.32
2023-05-25T17:50:56.276Z,5.20
2023-05-25T17:53:23.303Z,5.32
2023-05-25T17:55:50.228Z,5.20
2023-05-25T17:58:17.321Z,5.00
2023-05-25T18:00:44.407Z,5.15
2023-05-25T18:03:14.022Z,5.25
2023-05-25T18:05:51.008Z,5.10
2023-05-25T18:12:58.530Z,5.15
2023-05-25T18:15:25.779Z,5.30
2023-05-25T18:17:52.909Z,5.63
2023-05-25T18:20:19.944Z,5.18
2023-05-25T18:22:47.092Z,5.53
2023-05-25T18:25:14.064Z,5.40
2023-05-25T18:27:41.143Z,5.78
2023-05-25T18:30:08.876Z,5.07
2023-05-25T18:32:35.983Z,5.55
2023-05-25T18:35:03.183Z,5.07
2023-05-25T18:37:34.203Z,5.93
2023-05-25T18:40:02.005Z,6.50
2023-05-25T18:42:29.172Z,5.25
2023-05-25T18:44:56.180Z,5.38
2023-05-25T18:47:23.774Z,5.57
2023-05-25T18:49:51.027Z,5.07
2023-05-25T18:52:17.992Z,5.57
2023-05-25T18:54:45.058Z,5.38
2023-05-25T18:57:12.141Z,5.25
2023-05-25T18:59:39.381Z,6.00
2023-05-25T19:02:06.980Z,5.55
2023-05-25T19:04:34.150Z,5.40
2023-05-25T19:07:01.180Z,5.35
2023-05-25T19:09:28.668Z,5.25
2023-05-25T19:11:55.781Z,5.43
2023-05-25T19:14:22.902Z,5.65
2023-05-25T19:16:49.924Z,5.88
2023-05-25T19:19:17.009Z,5.93
2023-05-25T19:21:44.107Z,5.28
2023-05-25T19:24:11.227Z,5.82
2023-05-25T19:26:38.906Z,5.40
2023-05-25T19:29:07.109Z,5.32
2023-05-25T19:31:34.088Z,5.80
2023-05-25T19:34:01.126Z,5.90
2023-05-25T19:36:28.394Z,5.90
2023-05-25T19:38:55.416Z,6.38
2023-05-25T19:41:23.038Z,5.70
2023-05-25T19:43:50.092Z,5.72
2023-05-25T19:46:17.191Z,6.30
2023-05-25T19:48:44.145Z,6.75
2023-05-25T19:51:11.543Z,6.22
2023-05-25T19:53:39.005Z,6.13
2023-05-25T19:56:06.320Z,5.88
2023-05-25T19:58:33.292Z,5.97
2023-05-25T20:01:00.361Z,6.30
2023-05-25T20:03:27.403Z,5.50
2023-05-25T20:05:54.531Z,6.25
2023-05-25T20:08:21.562Z,5.35
2023-05-25T20:10:48.515Z,6.05
2023-05-25T20:13:15.541Z,5.45
2023-05-25T20:15:42.655Z,6.28
2023-05-25T20:18:09.826Z,6.43
2023-05-25T20:20:36.950Z,6.47
2023-05-25T20:23:04.220Z,6.22
2023-05-25T20:25:31.450Z,6.20
2023-05-25T20:27:58.433Z,6.57
2023-05-25T20:30:25.538Z,6.65
2023-05-25T20:32:52.665Z,6.20
2023-05-25T20:35:19.660Z,6.38
2023-05-25T20:37:46.838Z,6.63
2023-05-25T20:40:14.087Z,6.70
2023-05-25T20:42:41.121Z,6.45
2023-05-25T20:45:08.616Z,6.32
2023-05-25T20:47:36.037Z,6.63
2023-05-25T20:50:05.569Z,6.20
2023-05-25T20:52:34.098Z,6.60
2023-05-25T20:55:01.151Z,6.25
2023-05-25T20:57:29.376Z,6.40
2023-05-25T20:59:59.854Z,6.20
2023-05-25T21:02:28.808Z,6.50
2023-05-25T21:04:56.086Z,6.63
2023-05-25T21:07:23.116Z,6.55
2023-05-25T21:09:50.117Z,6.35
2023-05-25T21:12:17.065Z,6.00
2023-05-25T21:14:44.111Z,6.32
2023-05-25T21:17:11.150Z,7.10
2023-05-25T21:19:39.518Z,6.57
2023-05-25T21:22:06.934Z,6.80
2023-05-25T21:24:34.138Z,6.38
2023-05-25T21:27:01.498Z,6.72
2023-05-25T21:29:28.481Z,6.95
2023-05-25T21:31:55.507Z,6.75
2023-05-25T21:34:22.762Z,6.40
2023-05-25T21:36:49.819Z,6.88
2023-05-25T21:39:19.756Z,6.13
2023-05-25T21:41:46.690Z,7.30
2023-05-25T21:44:13.687Z,6.57
2023-05-25T21:46:40.654Z,6.50
2023-05-25T21:49:07.945Z,6.47
2023-05-25T21:51:35.130Z,6.60
2023-05-25T21:54:02.458Z,6.90
2023-05-25T21:56:30.656Z,6.72
2023-05-25T21:58:57.570Z,6.47
2023-05-25T22:01:24.752Z,6.55
2023-05-25T22:03:51.819Z,6.43
2023-05-25T22:06:18.929Z,6.82
2023-05-25T22:08:46.602Z,6.70
2023-05-25T22:11:14.120Z,6.63
2023-05-25T22:13:41.446Z,7.45
2023-05-25T22:16:08.633Z,6.47
2023-05-25T22:18:38.431Z,7.07
2023-05-25T22:21:05.800Z,6.63
2023-05-25T22:23:32.806Z,7.50
2023-05-25T22:25:59.725Z,7.68
2023-05-25T22:28:26.888Z,8.00
2023-05-25T22:30:53.760Z,7.07
2023-05-25T22:33:23.586Z,7.60
2023-05-25T22:35:51.386Z,7.25
2023-05-25T22:38:18.440Z,7.90
2023-05-25T22:40:47.648Z,7.93
2023-05-25T22:43:15.145Z,7.78
2023-05-25T22:45:42.269Z,7.28
2023-05-25T22:48:09.645Z,7.30
2023-05-25T22:50:36.599Z,7.88
2023-05-25T22:53:03.725Z,7.70
2023-05-25T22:55:30.963Z,7.45
2023-05-25T22:57:58.061Z,7.75
2023-05-25T23:00:25.047Z,8.27
2023-05-25T23:02:52.073Z,8.05
2023-05-25T23:05:19.164Z,8.25
2023-05-25T23:07:46.373Z,7.65
2023-05-25T23:10:13.537Z,7.95
2023-05-25T23:12:40.466Z,7.90
2023-05-25T23:15:08.184Z,7.82
2023-05-25T23:17:35.594Z,8.13
2023-05-25T23:20:15.033Z,7.68
2023-05-25T23:22:42.995Z,8.27
2023-05-25T23:25:10.215Z,7.72
2023-05-25T23:27:37.310Z,8.30
2023-05-25T23:30:06.471Z,7.65
2023-05-25T23:32:33.717Z,7.78
2023-05-25T23:35:00.790Z,7.50
2023-05-25T23:37:28.445Z,7.70
2023-05-25T23:39:55.534Z,7.82
2023-05-25T23:42:22.536Z,7.43
2023-05-25T23:44:49.519Z,8.43
2023-05-25T23:47:16.962Z,8.15
2023-05-25T23:49:43.970Z,7.55
2023-05-25T23:52:11.066Z,7.80
2023-05-25T23:54:38.016Z,7.45
2023-05-25T23:57:05.205Z,8.75
2023-05-25T23:59:32.203Z,8.25
